• Join FlightAware (Why Join?)
  • Login
  • US Flag 
12:21AM EST


 

Airport Tracker/Info


-or-


 

Live Flight TrackerFlight Track Log ✈ ASA503 ✈ 03-May-2012 ✈ KSNA - KSEA

Flight Track Log - Related Links

Times and Time Zones

All times are in EDT time to prevent confusion due to time zone crossing. See the ASA503 flight status page for this flight to view local times or setup timezone preferences in your user account.

Time Position Orientation Groundspeed Altitude Reporting Facility
EDT Latitude Longitude Course Direction KTS MPH feet Rate Location/Type
03:12PM 33.6333 -117.8833 196° South 155 178 2,200  Level Southern California TRACON
03:13PM 33.5833 -117.9000 189° South 171 197 3,700 1,260 Climbing Southern California TRACON
03:14PM 33.5633 -117.9036 209° Southwest 208 239 4,200 2,040 Climbing Los Angeles Center
03:15PM 33.5042 -117.9422 220° Southwest 261 300 6,900 2,940 Climbing Los Angeles Center
03:16PM 33.4514 -117.9958 258° West 272 313 10,100 2,760 Climbing Los Angeles Center
03:17PM 33.4331 -118.0950 257° West 288 331 12,500 2,760 Climbing Los Angeles Center
03:18PM 33.4103 -118.2139 307° West 310 357 15,700 3,000 Climbing Los Angeles Center
03:19PM 33.4669 -118.3050 332° Northwest 315 362 18,600 2,880 Climbing Los Angeles Center
03:20PM 33.5597 -118.3647 342° North 320 368 21,500 2,880 Climbing Los Angeles Center
03:21PM 33.6633 -118.4047 356° North 353 406 24,400 2,520 Climbing Los Angeles Center
03:22PM 33.7803 -118.4156 353° North 367 422 26,600 2,100 Climbing Los Angeles Center
03:23PM 33.8906 -118.4308 347° North 420 483 28,600 2,040 Climbing Los Angeles Center
03:24PM 34.0172 -118.4669 347° North 425 489 30,700 2,220 Climbing Los Angeles Center
03:25PM 34.1333 -118.5003 345° North 425 489 33,100 1,860 Climbing Los Angeles Center
03:26PM 34.2475 -118.5361 346° North 431 496 34,500 1,440 Climbing Los Angeles Center
03:27PM 34.3656 -118.5722 346° North 431 496 36,000 720 Climbing Los Angeles Center
03:28PM 34.4839 -118.6086 346° North 431 496 36,000  Level Los Angeles Center
03:29PM 34.6000 -118.6447 345° North 431 496 36,000  Level Los Angeles Center
03:30PM 34.7058 -118.6783 347° North 431 496 36,000  Level Los Angeles Center
03:31PM 34.8239 -118.7122 349° North 431 496 36,000  Level Los Angeles Center
03:32PM 34.9403 -118.7389 346° North 431 496 36,000  Level Los Angeles Center
03:33PM 35.0606 -118.7756 347° North 431 496 36,000  Level Los Angeles Center
03:34PM 35.1786 -118.8100 346° North 431 496 36,000  Level Los Angeles Center
03:35PM 35.2969 -118.8469 346° North 431 496 36,000  Level Los Angeles Center
03:36PM 35.4150 -118.8839 347° North 431 496 36,000  Level Los Angeles Center
03:37PM 35.5353 -118.9186 346° North 431 496 36,000  Level Los Angeles Center
03:38PM 35.6533 -118.9558 345° North 431 496 36,000  Level Los Angeles Center
03:39PM 35.7753 -118.9961 347° North 436 502 36,000  Level Los Angeles Center
03:40PM 35.8956 -119.0311 345° North 436 502 36,000  Level Los Angeles Center
03:41PM 36.0664 -119.0881 346° North 443 510 36,000  Level Oakland Center
03:42PM 36.1836 -119.1236 346° North 438 504 36,000  Level Oakland Center
03:43PM 36.3053 -119.1619 345° North 438 504 36,000  Level Oakland Center
03:44PM 36.4247 -119.2006 347° North 438 504 36,000 600 Level Oakland Center
03:45PM 36.5464 -119.2364 344° North 438 504 37,200 1,200 Climbing Oakland Center
03:46PM 36.6658 -119.2803 346° North 438 504 38,500 1,140 Climbing Oakland Center
03:47PM 36.7853 -119.3164 345° North 438 504 39,500 720 Climbing Oakland Center
03:48PM 36.9047 -119.3556 347° North 438 504 40,000 240 Climbing Oakland Center
03:49PM 37.0242 -119.3894 346° North 443 510 40,000  Level Oakland Center
03:50PM 37.1456 -119.4283 345° North 438 504 40,000  Level Oakland Center
03:51PM 37.2672 -119.4703 347° North 438 504 40,000  Level Oakland Center
03:52PM 37.3864 -119.5044 347° North 438 504 40,000  Level Oakland Center
03:53PM 37.5142 -119.5414 347° North 443 510 40,000  Level Oakland Center
03:54PM 37.6378 -119.5783 343° North 449 517 40,000  Level Oakland Center
03:55PM 37.7550 -119.6233 347° North 449 517 40,000  Level Oakland Center
03:56PM 37.8806 -119.6606 345° North 449 517 40,000  Level Oakland Center
03:57PM 38.0022 -119.7031 346° North 449 517 40,000  Level Oakland Center
03:58PM 38.1236 -119.7406 344° North 449 517 40,000  Level Oakland Center
03:59PM 38.2428 -119.7836 345° North 449 517 40,000  Level Oakland Center
04:00PM 38.3642 -119.8239 346° North 449 517 40,000  Level Oakland Center
04:01PM 38.4856 -119.8619 345° North 449 517 40,000  Level Oakland Center
04:02PM 38.6194 -119.9075 345° North 449 517 40,000  Level Oakland Center
04:03PM 38.7408 -119.9483 346° North 449 517 40,000  Level Oakland Center
04:04PM 38.8600 -119.9867 341° North 449 517 40,000  Level Oakland Center
04:05PM 38.9731 -120.0358 345° North 433 498 40,000  Level Oakland Center
04:06PM 39.0881 -120.0744 345° North 423 487 40,000  Level Oakland Center
04:07PM 39.2072 -120.1158 347° North 423 487 40,000  Level Oakland Center
04:08PM 39.3367 -120.1547 345° North 445 512 40,000  Level Oakland Center
04:09PM 39.4536 -120.1964 345° North 450 518 40,000  Level Oakland Center
04:10PM 39.5728 -120.2381 345° North 445 512 40,000  Level Oakland Center
04:11PM 39.6919 -120.2800 346° North 440 506 40,000  Level Oakland Center
04:12PM 39.8111 -120.3194 344° North 434 499 40,000  Level Oakland Center
04:13PM 39.9300 -120.3642 346° North 434 499 40,000  Level Oakland Center
04:14PM 40.0408 -120.4014 344° North 434 499 40,000  Level Oakland Center
04:15PM 40.1578 -120.4439 347° North 429 494 40,000  Level Oakland Center
04:16PM 40.2786 -120.4808 345° North 434 499 40,000  Level Oakland Center
04:17PM 40.3997 -120.5236 344° North 440 506 40,000  Level Oakland Center
04:18PM 40.5186 -120.5694 346° North 445 512 40,000  Level Oakland Center
04:20PM 40.6392 -120.6103 344° North 443 510 40,000  Level Seattle Center
04:21PM 40.7611 -120.6569 345° North 451 519 40,000  Level Seattle Center
04:22PM 40.8833 -120.7008 346° North 455 524 40,000  Level Seattle Center
04:23PM 41.0097 -120.7419 343° North 457 526 40,000  Level Seattle Center
04:24PM 41.1278 -120.7900 346° North 444 511 40,000  Level Seattle Center
04:25PM 41.2564 -120.8328 345° North 467 537 40,000  Level Seattle Center
04:26PM 41.3758 -120.8764 344° North 451 519 40,000  Level Seattle Center
04:27PM 41.4947 -120.9211 345° North 447 514 40,000  Level Seattle Center
04:28PM 41.6133 -120.9644 344° North 444 511 40,000  Level Seattle Center
04:29PM 41.7567 -121.0183 345° North 446 513 40,000  Level Seattle Center
04:30PM 41.8764 -121.0622 344° North 447 514 40,000  Level Seattle Center
04:31PM 41.9950 -121.1067 345° North 446 513 40,000  Level Seattle Center
04:32PM 42.1150 -121.1503 344° North 447 514 40,000  Level Seattle Center
04:33PM 42.2336 -121.1958 345° North 447 514 40,000  Level Seattle Center
04:34PM 42.3547 -121.2397 344° North 451 519 40,000  Level Seattle Center
04:35PM 42.4753 -121.2861 345° North 454 522 40,000  Level Seattle Center
04:36PM 42.5961 -121.3308 345° North 453 521 40,000  Level Seattle Center
04:37PM 42.7206 -121.3767 344° North 460 529 40,000  Level Seattle Center
04:38PM 42.8694 -121.4358 344° North 464 534 40,000  Level Seattle Center
04:39PM 42.9931 -121.4836 344° North 464 534 40,000  Level Seattle Center
04:40PM 43.1169 -121.5317 344° North 464 534 40,000  Level Seattle Center
04:41PM 43.2408 -121.5792 344° North 464 534 40,000  Level Seattle Center
04:42PM 43.3642 -121.6269 344° North 461 531 40,000  Level Seattle Center
04:43PM 43.4886 -121.6758 344° North 464 534 40,000  Level Seattle Center
04:44PM 43.6136 -121.7239 344° North 466 536 40,000  Level Seattle Center
04:45PM 43.7375 -121.7736 345° North 464 534 40,000  Level Seattle Center
04:46PM 43.8700 -121.8242 344° North 468 539 40,000  Level Seattle Center
04:47PM 43.9939 -121.8733 345° North 467 537 40,000  Level Seattle Center
04:48PM 44.1317 -121.9247 344° North 462 532 40,000  Level Seattle Center
04:49PM 44.2500 -121.9733 344° North 451 519 40,000  Level Seattle Center
04:50PM 44.3678 -122.0206 344° North 446 513 40,000  Level Seattle Center
04:51PM 44.4861 -122.0689 344° North 444 511 40,000  Level Seattle Center
04:52PM 44.6028 -122.1164 344° North 440 506 40,000  Level Seattle Center
04:53PM 44.7194 -122.1650 344° North 440 506 40,000  Level Seattle Center
04:54PM 44.8369 -122.2131 344° North 440 506 40,000  Level Seattle Center
04:55PM 44.9592 -122.2636 344° North 441 507 40,000  Level Seattle Center
04:56PM 45.0783 -122.3125 337° Northwest 446 513 40,000  Level Seattle Center
04:57PM 45.2144 -122.3947 326° Northwest 454 522 40,000  Level Seattle Center
04:58PM 45.3144 -122.4903 326° Northwest 440 506 40,000  Level Seattle Center
04:59PM 45.4144 -122.5869 326° Northwest 440 506 40,000 -480 Level Seattle Center
05:00PM 45.5164 -122.6858 325° Northwest 444 511 39,100 -1,080 Descending Seattle Center
05:02PM 45.6178 -122.7864 349° North 446 513 37,600 -1,320 Descending Seattle Center
05:03PM 45.7589 -122.8267 357° North 446 513 36,200 -2,100 Descending Seattle Center
05:04PM 45.8825 -122.8347 358° North 447 514 33,400 -2,820 Descending Seattle Center
05:05PM 46.0075 -122.8422 357° North 450 518 30,500 -2,880 Descending Seattle Center
05:06PM 46.1525 -122.8525 357° North 442 509 27,600 -2,460 Descending Seattle Center
05:07PM 46.2594 -122.8603 358° North 428 493 25,500 -2,100 Descending Seattle Center
05:08PM 46.3697 -122.8667 358° North 408 470 23,400 -2,100 Descending Seattle Center
05:09PM 46.4756 -122.8714 358° North 392 451 21,300 -2,100 Descending Seattle Center
05:10PM 46.5783 -122.8778 359° North 380 437 19,200 -2,340 Descending Seattle Center
05:11PM 46.6983 -122.8822 356° North 367 422 16,600 -2,340 Descending Seattle Center
05:12PM 46.7892 -122.8911 357° North 357 411 14,800 -2,040 Descending Seattle Center
05:13PM 46.8797 -122.8981 North 351 404 13,000 -1,500 Descending Seattle Center
05:14PM 46.9697 -122.8950 38° Northeast 333 383 12,000 -480 Descending Seattle Center
05:15PM 47.0411 -122.8119 40° Northeast 284 327 12,000 -60 Level Seattle Center
05:16PM 47.0958 -122.7433 83° East 264 304 11,900 -840 Descending Seattle Center
05:17PM 47.1069 -122.6164 87° East 267 307 10,300 -1,320 Descending Seattle Center
05:18PM 47.1103 -122.5272 65° Northeast 264 304 9,300 -1,500 Descending Seattle Center
05:19PM 47.1408 -122.4292 45° Northeast 251 289 7,400 -1,800 Descending Seattle Center
05:20PM 47.1894 -122.3575 25° Northeast 240 276 5,400 -1,740 Descending Seattle Center
05:21PM 47.2386 -122.3236 North 224 258 4,100 -1,320 Descending Seattle Center
05:22PM 47.3022 -122.3117 359° North 217 250 3,000 -1,080 Descending Seattle Center
05:23PM 47.3536 -122.3128 North 193 222 2,000 -900 Descending Seattle Center
05:24PM 47.3931 -122.3106 358° North 139 160 1,300 -720 Descending Seattle Center
05:25PM 47.4314 -122.3125 359° North 129 148 500 -480 Descending Seattle Center
05:26PM 47.4697 -122.3131 359° North 129 148 300 -180 Descending Seattle Center